sensor_id;sensor_type;location;lat;lon;timestamp;P1;durP1;ratioP1;P2;durP2;ratioP2
72115;SDS011;59991;52.140;5.428;2024-03-23T00:54:08;26.23;;;10.57;;
72115;SDS011;59991;52.140;5.428;2024-03-23T00:54:38;25.53;;;10.37;;
72115;SDS011;59991;52.140;5.428;2024-03-23T00:55:09;23.52;;;10.40;;
72115;SDS011;59991;52.140;5.428;2024-03-23T00:55:39;27.27;;;10.70;;
72115;SDS011;59991;52.140;5.428;2024-03-23T00:56:10;25.67;;;10.63;;
72115;SDS011;59991;52.140;5.428;2024-03-23T00:56:40;24.63;;;11.27;;
72115;SDS011;59991;52.140;5.428;2024-03-23T00:57:11;21.52;;;11.30;;
72115;SDS011;59991;52.140;5.428;2024-03-23T00:57:41;28.50;;;10.73;;
72115;SDS011;59991;52.140;5.428;2024-03-23T00:58:12;19.00;;;10.45;;
72115;SDS011;59991;52.140;5.428;2024-03-23T00:58:42;22.83;;;9.90;;
72115;SDS011;59991;52.140;5.428;2024-03-23T00:59:13;23.63;;;10.10;;
72115;SDS011;59991;52.140;5.428;2024-03-23T00:59:44;21.27;;;10.27;;
72115;SDS011;59991;52.140;5.428;2024-03-23T01:00:14;26.58;;;11.15;;
72115;SDS011;59991;52.140;5.428;2024-03-23T01:00:46;21.75;;;10.35;;
72115;SDS011;59991;52.140;5.428;2024-03-23T01:01:16;22.30;;;10.33;;
72115;SDS011;59991;52.140;5.428;2024-03-23T01:01:47;25.77;;;10.37;;
72115;SDS011;59991;52.140;5.428;2024-03-23T01:02:17;20.42;;;10.57;;
72115;SDS011;59991;52.140;5.428;2024-03-23T01:02:48;21.17;;;11.23;;
72115;SDS011;59991;52.140;5.428;2024-03-23T01:03:19;26.33;;;10.80;;
72115;SDS011;59991;52.140;5.428;2024-03-23T01:03:50;22.30;;;10.35;;
72115;SDS011;59991;52.140;5.428;2024-03-23T01:04:20;27.30;;;10.27;;
72115;SDS011;59991;52.140;5.428;2024-03-23T01:04:51;18.73;;;10.30;;
72115;SDS011;59991;52.140;5.428;2024-03-23T01:05:21;25.03;;;10.77;;
72115;SDS011;59991;52.140;5.428;2024-03-23T01:05:52;22.47;;;10.50;;
72115;SDS011;59991;52.140;5.428;2024-03-23T01:06:24;23.15;;;9.95;;
72115;SDS011;59991;52.140;5.428;2024-03-23T01:06:54;17.23;;;9.13;;
72115;SDS011;59991;52.140;5.428;2024-03-23T01:07:25;23.77;;;11.03;;
72115;SDS011;59991;52.140;5.428;2024-03-23T01:07:55;23.38;;;12.35;;
72115;SDS011;59991;52.140;5.428;2024-03-23T01:08:26;24.53;;;10.70;;
72115;SDS011;59991;52.140;5.428;2024-03-23T01:08:57;23.02;;;11.45;;
72115;SDS011;59991;52.140;5.428;2024-03-23T01:09:27;32.43;;;11.30;;
72115;SDS011;59991;52.140;5.428;2024-03-23T01:09:58;20.92;;;9.73;;
72115;SDS011;59991;52.140;5.428;2024-03-23T01:10:29;20.77;;;10.45;;
72115;SDS011;59991;52.140;5.428;2024-03-23T01:11:18;19.40;;;9.93;;
72115;SDS011;59991;52.140;5.428;2024-03-23T01:11:49;20.60;;;9.57;;
72115;SDS011;59991;52.140;5.428;2024-03-23T01:12:38;23.58;;;9.70;;
72115;SDS011;59991;52.140;5.428;2024-03-23T01:13:08;24.73;;;9.03;;
72115;SDS011;59991;52.140;5.428;2024-03-23T01:13:39;19.10;;;9.93;;
72115;SDS011;59991;52.140;5.428;2024-03-23T01:14:09;21.30;;;8.60;;
72115;SDS011;59991;52.140;5.428;2024-03-23T01:14:40;29.80;;;11.88;;
72115;SDS011;59991;52.140;5.428;2024-03-23T01:15:10;20.73;;;9.83;;
72115;SDS011;59991;52.140;5.428;2024-03-23T01:15:41;28.73;;;10.25;;
72115;SDS011;59991;52.140;5.428;2024-03-23T01:16:36;19.42;;;10.15;;
72115;SDS011;59991;52.140;5.428;2024-03-23T01:17:07;22.60;;;9.30;;
72115;SDS011;59991;52.140;5.428;2024-03-23T01:17:38;23.65;;;10.50;;
72115;SDS011;59991;52.140;5.428;2024-03-23T01:18:08;23.83;;;10.30;;
72115;SDS011;59991;52.140;5.428;2024-03-23T01:18:39;25.90;;;11.85;;
72115;SDS011;59991;52.140;5.428;2024-03-23T01:19:09;21.87;;;10.27;;
72115;SDS011;59991;52.140;5.428;2024-03-23T01:19:40;19.97;;;9.70;;
72115;SDS011;59991;52.140;5.428;2024-03-23T01:20:11;29.15;;;12.30;;
72115;SDS011;59991;52.140;5.428;2024-03-23T01:20:42;21.80;;;11.10;;
72115;SDS011;59991;52.140;5.428;2024-03-23T01:21:12;27.30;;;11.03;;
72115;SDS011;59991;52.140;5.428;2024-03-23T01:21:43;23.33;;;11.05;;
72115;SDS011;59991;52.140;5.428;2024-03-23T01:22:14;25.50;;;11.37;;
72115;SDS011;59991;52.140;5.428;2024-03-23T01:23:03;22.38;;;9.93;;
72115;SDS011;59991;52.140;5.428;2024-03-23T01:23:34;25.02;;;11.18;;
72115;SDS011;59991;52.140;5.428;2024-03-23T01:24:04;27.83;;;10.53;;
72115;SDS011;59991;52.140;5.428;2024-03-23T01:24:35;28.35;;;11.10;;
72115;SDS011;59991;52.140;5.428;2024-03-23T01:25:06;23.00;;;11.37;;
72115;SDS011;59991;52.140;5.428;2024-03-23T01:25:37;25.17;;;10.07;;
72115;SDS011;59991;52.140;5.428;2024-03-23T01:26:08;24.33;;;9.40;;
72115;SDS011;59991;52.140;5.428;2024-03-23T01:26:39;22.60;;;10.80;;
72115;SDS011;59991;52.140;5.428;2024-03-23T01:27:09;27.08;;;10.45;;
72115;SDS011;59991;52.140;5.428;2024-03-23T01:27:40;23.45;;;9.48;;
72115;SDS011;59991;52.140;5.428;2024-03-23T01:28:11;23.17;;;10.93;;
72115;SDS011;59991;52.140;5.428;2024-03-23T01:29:30;26.42;;;10.15;;
72115;SDS011;59991;52.140;5.428;2024-03-23T01:30:01;20.80;;;10.30;;
72115;SDS011;59991;52.140;5.428;2024-03-23T01:30:32;23.50;;;10.00;;
72115;SDS011;59991;52.140;5.428;2024-03-23T01:31:03;23.63;;;9.23;;
72115;SDS011;59991;52.140;5.428;2024-03-23T01:31:33;22.55;;;9.95;;
72115;SDS011;59991;52.140;5.428;2024-03-23T01:32:04;23.63;;;10.33;;
72115;SDS011;59991;52.140;5.428;2024-03-23T01:32:35;22.42;;;11.18;;
72115;SDS011;59991;52.140;5.428;2024-03-23T01:33:06;26.00;;;10.90;;
72115;SDS011;59991;52.140;5.428;2024-03-23T01:33:36;30.40;;;10.70;;
72115;SDS011;59991;52.140;5.428;2024-03-23T01:34:07;24.73;;;9.73;;
72115;SDS011;59991;52.140;5.428;2024-03-23T01:34:37;26.03;;;10.40;;
72115;SDS011;59991;52.140;5.428;2024-03-23T01:35:08;21.38;;;9.23;;
72115;SDS011;59991;52.140;5.428;2024-03-23T01:35:41;25.93;;;9.33;;
72115;SDS011;59991;52.140;5.428;2024-03-23T01:36:11;19.38;;;10.00;;
72115;SDS011;59991;52.140;5.428;2024-03-23T01:36:42;23.87;;;10.67;;
72115;SDS011;59991;52.140;5.428;2024-03-23T01:37:12;19.25;;;9.40;;
72115;SDS011;59991;52.140;5.428;2024-03-23T01:37:43;31.73;;;11.90;;
72115;SDS011;59991;52.140;5.428;2024-03-23T01:38:13;22.63;;;9.98;;
72115;SDS011;59991;52.140;5.428;2024-03-23T01:38:44;24.60;;;11.10;;
72115;SDS011;59991;52.140;5.428;2024-03-23T01:39:14;21.67;;;9.77;;
72115;SDS011;59991;52.140;5.428;2024-03-23T01:39:45;18.77;;;10.20;;
72115;SDS011;59991;52.140;5.428;2024-03-23T01:40:18;21.23;;;10.43;;
72115;SDS011;59991;52.140;5.428;2024-03-23T01:40:49;22.83;;;10.73;;
72115;SDS011;59991;52.140;5.428;2024-03-23T01:41:19;25.03;;;9.83;;
72115;SDS011;59991;52.140;5.428;2024-03-23T01:41:50;20.40;;;9.37;;
72115;SDS011;59991;52.140;5.428;2024-03-23T01:42:21;21.38;;;9.75;;
72115;SDS011;59991;52.140;5.428;2024-03-23T01:42:58;27.17;;;11.80;;
72115;SDS011;59991;52.140;5.428;2024-03-23T01:43:47;20.13;;;8.90;;
72115;SDS011;59991;52.140;5.428;2024-03-23T01:45:08;18.42;;;9.85;;
72115;SDS011;59991;52.140;5.428;2024-03-23T01:45:42;26.02;;;10.07;;
72115;SDS011;59991;52.140;5.428;2024-03-23T01:46:13;21.43;;;9.87;;
72115;SDS011;59991;52.140;5.428;2024-03-23T01:46:43;28.23;;;11.70;;
72115;SDS011;59991;52.140;5.428;2024-03-23T01:47:14;24.73;;;10.80;;
72115;SDS011;59991;52.140;5.428;2024-03-23T01:47:45;33.73;;;11.50;;
72115;SDS011;59991;52.140;5.428;2024-03-23T01:49:54;22.02;;;9.13;;
72115;SDS011;59991;52.140;5.428;2024-03-23T01:50:25;22.57;;;10.77;;
72115;SDS011;59991;52.140;5.428;2024-03-23T01:50:56;19.45;;;10.15;;
72115;SDS011;59991;52.140;5.428;2024-03-23T01:51:27;24.73;;;10.23;;
72115;SDS011;59991;52.140;5.428;2024-03-23T01:51:59;22.35;;;9.52;;
72115;SDS011;59991;52.140;5.428;2024-03-23T01:52:30;24.05;;;10.50;;
72115;SDS011;59991;52.140;5.428;2024-03-23T01:53:04;20.70;;;9.43;;
72115;SDS011;59991;52.140;5.428;2024-03-23T01:53:36;20.25;;;9.68;;
72115;SDS011;59991;52.140;5.428;2024-03-23T01:54:07;26.02;;;11.15;;
72115;SDS011;59991;52.140;5.428;2024-03-23T01:54:56;19.15;;;9.27;;
72115;SDS011;59991;52.140;5.428;2024-03-23T01:55:26;20.10;;;9.67;;
72115;SDS011;59991;52.140;5.428;2024-03-23T01:55:57;25.08;;;10.77;;
72115;SDS011;59991;52.140;5.428;2024-03-23T01:56:31;24.70;;;10.25;;
72115;SDS011;59991;52.140;5.428;2024-03-23T01:57:06;24.15;;;10.27;;
72115;SDS011;59991;52.140;5.428;2024-03-23T01:57:36;23.67;;;11.30;;
72115;SDS011;59991;52.140;5.428;2024-03-23T01:58:07;17.85;;;10.07;;
72115;SDS011;59991;52.140;5.428;2024-03-23T01:58:37;26.93;;;11.13;;
72115;SDS011;59991;52.140;5.428;2024-03-23T01:59:26;32.03;;;10.98;;
72115;SDS011;59991;52.140;5.428;2024-03-23T01:59:57;20.92;;;9.90;;
72115;SDS011;59991;52.140;5.428;2024-03-23T02:00:27;24.13;;;10.63;;
72115;SDS011;59991;52.140;5.428;2024-03-23T02:00:58;28.13;;;10.60;;
72115;SDS011;59991;52.140;5.428;2024-03-23T02:01:28;22.50;;;9.63;;
72115;SDS011;59991;52.140;5.428;2024-03-23T02:01:59;26.63;;;11.45;;
72115;SDS011;59991;52.140;5.428;2024-03-23T02:02:29;18.23;;;9.73;;
72115;SDS011;59991;52.140;5.428;2024-03-23T02:03:00;24.00;;;9.93;;
72115;SDS011;59991;52.140;5.428;2024-03-23T02:03:31;22.50;;;9.67;;
72115;SDS011;59991;52.140;5.428;2024-03-23T02:04:02;26.85;;;11.10;;
72115;SDS011;59991;52.140;5.428;2024-03-23T02:04:32;24.75;;;10.13;;
72115;SDS011;59991;52.140;5.428;2024-03-23T02:05:04;28.42;;;10.48;;
72115;SDS011;59991;52.140;5.428;2024-03-23T02:05:35;20.70;;;10.07;;
72115;SDS011;59991;52.140;5.428;2024-03-23T02:06:05;21.40;;;8.98;;
72115;SDS011;59991;52.140;5.428;2024-03-23T02:06:37;17.15;;;9.45;;
72115;SDS011;59991;52.140;5.428;2024-03-23T02:07:26;18.50;;;9.75;;
72115;SDS011;59991;52.140;5.428;2024-03-23T02:07:57;25.00;;;10.70;;
72115;SDS011;59991;52.140;5.428;2024-03-23T02:08:28;26.52;;;10.82;;
72115;SDS011;59991;52.140;5.428;2024-03-23T02:09:18;20.90;;;8.93;;
72115;SDS011;59991;52.140;5.428;2024-03-23T02:09:49;23.40;;;10.33;;
72115;SDS011;59991;52.140;5.428;2024-03-23T02:10:20;20.50;;;9.50;;
72115;SDS011;59991;52.140;5.428;2024-03-23T02:10:50;27.42;;;9.88;;
72115;SDS011;59991;52.140;5.428;2024-03-23T02:11:21;20.40;;;10.80;;
72115;SDS011;59991;52.140;5.428;2024-03-23T02:11:52;22.65;;;10.50;;
72115;SDS011;59991;52.140;5.428;2024-03-23T02:12:22;26.47;;;10.77;;
72115;SDS011;59991;52.140;5.428;2024-03-23T02:13:11;22.33;;;9.25;;
72115;SDS011;59991;52.140;5.428;2024-03-23T02:13:42;26.42;;;10.25;;
72115;SDS011;59991;52.140;5.428;2024-03-23T02:14:13;24.13;;;10.10;;
72115;SDS011;59991;52.140;5.428;2024-03-23T02:14:43;18.60;;;9.38;;
72115;SDS011;59991;52.140;5.428;2024-03-23T02:15:14;23.47;;;10.10;;
72115;SDS011;59991;52.140;5.428;2024-03-23T02:15:44;20.25;;;10.00;;
72115;SDS011;59991;52.140;5.428;2024-03-23T02:16:15;25.27;;;9.82;;
72115;SDS011;59991;52.140;5.428;2024-03-23T02:16:46;23.20;;;9.43;;
72115;SDS011;59991;52.140;5.428;2024-03-23T02:17:17;27.02;;;9.65;;
72115;SDS011;59991;52.140;5.428;2024-03-23T02:18:09;21.95;;;10.18;;
72115;SDS011;59991;52.140;5.428;2024-03-23T02:18:39;23.42;;;9.63;;
72115;SDS011;59991;52.140;5.428;2024-03-23T02:19:10;20.20;;;9.53;;
72115;SDS011;59991;52.140;5.428;2024-03-23T02:19:40;19.30;;;9.77;;
72115;SDS011;59991;52.140;5.428;2024-03-23T02:20:11;20.23;;;10.17;;
72115;SDS011;59991;52.140;5.428;2024-03-23T02:20:42;22.50;;;9.38;;
72115;SDS011;59991;52.140;5.428;2024-03-23T02:21:12;16.87;;;9.80;;
72115;SDS011;59991;52.140;5.428;2024-03-23T02:22:35;25.10;;;11.20;;
72115;SDS011;59991;52.140;5.428;2024-03-23T02:23:16;29.90;;;10.82;;
72115;SDS011;59991;52.140;5.428;2024-03-23T02:23:48;21.55;;;9.10;;
72115;SDS011;59991;52.140;5.428;2024-03-23T02:24:18;23.60;;;10.03;;
72115;SDS011;59991;52.140;5.428;2024-03-23T02:24:49;26.87;;;10.73;;
72115;SDS011;59991;52.140;5.428;2024-03-23T02:25:19;19.48;;;10.75;;
72115;SDS011;59991;52.140;5.428;2024-03-23T02:25:50;24.33;;;11.00;;
72115;SDS011;59991;52.140;5.428;2024-03-23T02:26:21;22.27;;;10.55;;
72115;SDS011;59991;52.140;5.428;2024-03-23T02:26:51;24.13;;;9.85;;
72115;SDS011;59991;52.140;5.428;2024-03-23T02:27:22;18.73;;;10.20;;
72115;SDS011;59991;52.140;5.428;2024-03-23T02:27:52;19.63;;;9.27;;
72115;SDS011;59991;52.140;5.428;2024-03-23T02:28:26;22.63;;;9.70;;
72115;SDS011;59991;52.140;5.428;2024-03-23T02:28:56;25.10;;;10.70;;
72115;SDS011;59991;52.140;5.428;2024-03-23T02:29:27;30.77;;;10.13;;
72115;SDS011;59991;52.140;5.428;2024-03-23T02:29:57;21.90;;;10.65;;
72115;SDS011;59991;52.140;5.428;2024-03-23T02:30:28;24.10;;;10.87;;
72115;SDS011;59991;52.140;5.428;2024-03-23T02:30:58;24.13;;;11.15;;
72115;SDS011;59991;52.140;5.428;2024-03-23T02:31:31;24.70;;;10.13;;
72115;SDS011;59991;52.140;5.428;2024-03-23T02:32:02;26.63;;;10.43;;
72115;SDS011;59991;52.140;5.428;2024-03-23T02:32:32;27.43;;;10.40;;
72115;SDS011;59991;52.140;5.428;2024-03-23T02:33:03;23.60;;;9.80;;
72115;SDS011;59991;52.140;5.428;2024-03-23T02:33:34;30.63;;;9.90;;
72115;SDS011;59991;52.140;5.428;2024-03-23T02:34:08;25.70;;;11.50;;
72115;SDS011;59991;52.140;5.428;2024-03-23T02:34:38;24.60;;;9.80;;
72115;SDS011;59991;52.140;5.428;2024-03-23T02:35:09;19.15;;;9.63;;
72115;SDS011;59991;52.140;5.428;2024-03-23T02:35:39;22.03;;;10.30;;
72115;SDS011;59991;52.140;5.428;2024-03-23T02:36:10;22.48;;;9.70;;
72115;SDS011;59991;52.140;5.428;2024-03-23T02:36:40;24.50;;;10.80;;
72115;SDS011;59991;52.140;5.428;2024-03-23T02:37:11;17.97;;;8.93;;
72115;SDS011;59991;52.140;5.428;2024-03-23T02:37:42;25.90;;;9.68;;
72115;SDS011;59991;52.140;5.428;2024-03-23T02:38:12;20.63;;;9.40;;
72115;SDS011;59991;52.140;5.428;2024-03-23T02:38:43;19.80;;;9.93;;
72115;SDS011;59991;52.140;5.428;2024-03-23T02:39:13;22.77;;;9.50;;
72115;SDS011;59991;52.140;5.428;2024-03-23T02:40:02;24.30;;;9.95;;
72115;SDS011;59991;52.140;5.428;2024-03-23T02:40:33;26.05;;;11.05;;
72115;SDS011;59991;52.140;5.428;2024-03-23T02:41:04;24.00;;;9.80;;
72115;SDS011;59991;52.140;5.428;2024-03-23T02:41:34;24.98;;;9.70;;
72115;SDS011;59991;52.140;5.428;2024-03-23T02:42:05;29.15;;;9.85;;
72115;SDS011;59991;52.140;5.428;2024-03-23T02:42:36;23.50;;;9.93;;
72115;SDS011;59991;52.140;5.428;2024-03-23T02:43:06;23.27;;;8.53;;
72115;SDS011;59991;52.140;5.428;2024-03-23T02:43:37;22.07;;;9.73;;
72115;SDS011;59991;52.140;5.428;2024-03-23T02:44:07;24.02;;;9.98;;
72115;SDS011;59991;52.140;5.428;2024-03-23T02:44:38;21.13;;;9.53;;
72115;SDS011;59991;52.140;5.428;2024-03-23T02:45:08;25.55;;;8.80;;
72115;SDS011;59991;52.140;5.428;2024-03-23T02:45:39;22.47;;;9.50;;
72115;SDS011;59991;52.140;5.428;2024-03-23T02:46:09;24.00;;;9.77;;
72115;SDS011;59991;52.140;5.428;2024-03-23T02:46:40;18.43;;;8.50;;
72115;SDS011;59991;52.140;5.428;2024-03-23T02:47:10;22.52;;;9.07;;
72115;SDS011;59991;52.140;5.428;2024-03-23T02:47:41;21.13;;;9.33;;
72115;SDS011;59991;52.140;5.428;2024-03-23T02:48:12;19.08;;;8.43;;
72115;SDS011;59991;52.140;5.428;2024-03-23T02:48:42;19.17;;;8.57;;
72115;SDS011;59991;52.140;5.428;2024-03-23T02:49:32;21.50;;;8.15;;
72115;SDS011;59991;52.140;5.428;2024-03-23T02:50:03;19.17;;;9.03;;
72115;SDS011;59991;52.140;5.428;2024-03-23T02:50:34;22.17;;;9.13;;
72115;SDS011;59991;52.140;5.428;2024-03-23T02:51:05;17.75;;;8.10;;
72115;SDS011;59991;52.140;5.428;2024-03-23T02:51:35;22.73;;;8.57;;
72115;SDS011;59991;52.140;5.428;2024-03-23T02:52:06;26.48;;;9.25;;
72115;SDS011;59991;52.140;5.428;2024-03-23T02:52:36;22.70;;;7.27;;
72115;SDS011;59991;52.140;5.428;2024-03-23T02:53:07;19.42;;;7.57;;
72115;SDS011;59991;52.140;5.428;2024-03-23T02:53:37;20.67;;;9.90;;
72115;SDS011;59991;52.140;5.428;2024-03-23T02:54:08;21.88;;;8.93;;
72115;SDS011;59991;52.140;5.428;2024-03-23T02:54:57;20.87;;;8.27;;
72115;SDS011;59991;52.140;5.428;2024-03-23T02:55:28;23.48;;;8.75;;
72115;SDS011;59991;52.140;5.428;2024-03-23T02:55:58;23.40;;;7.63;;
72115;SDS011;59991;52.140;5.428;2024-03-23T02:56:29;23.48;;;7.75;;
72115;SDS011;59991;52.140;5.428;2024-03-23T02:56:59;18.52;;;7.88;;
72115;SDS011;59991;52.140;5.428;2024-03-23T02:57:30;22.10;;;7.23;;
72115;SDS011;59991;52.140;5.428;2024-03-23T02:58:01;28.00;;;9.52;;
72115;SDS011;59991;52.140;5.428;2024-03-23T02:58:32;23.55;;;8.45;;
72115;SDS011;59991;52.140;5.428;2024-03-23T02:59:02;19.70;;;7.83;;
72115;SDS011;59991;52.140;5.428;2024-03-23T02:59:33;17.20;;;7.27;;
72115;SDS011;59991;52.140;5.428;2024-03-23T03:00:03;17.90;;;7.60;;
72115;SDS011;59991;52.140;5.428;2024-03-23T03:00:35;18.80;;;7.55;;
72115;SDS011;59991;52.140;5.428;2024-03-23T03:01:06;16.17;;;7.03;;
72115;SDS011;59991;52.140;5.428;2024-03-23T03:01:36;16.17;;;7.50;;
72115;SDS011;59991;52.140;5.428;2024-03-23T03:02:07;17.83;;;8.60;;
72115;SDS011;59991;52.140;5.428;2024-03-23T03:02:37;19.25;;;8.50;;
72115;SDS011;59991;52.140;5.428;2024-03-23T03:03:57;21.40;;;6.97;;
72115;SDS011;59991;52.140;5.428;2024-03-23T03:04:28;18.83;;;8.20;;
72115;SDS011;59991;52.140;5.428;2024-03-23T03:04:58;17.13;;;7.17;;
72115;SDS011;59991;52.140;5.428;2024-03-23T03:06:27;18.95;;;7.03;;
72115;SDS011;59991;52.140;5.428;2024-03-23T03:06:58;14.60;;;7.55;;
72115;SDS011;59991;52.140;5.428;2024-03-23T03:07:29;16.43;;;6.47;;
72115;SDS011;59991;52.140;5.428;2024-03-23T03:07:59;22.15;;;7.30;;
72115;SDS011;59991;52.140;5.428;2024-03-23T03:08:30;17.50;;;6.37;;
72115;SDS011;59991;52.140;5.428;2024-03-23T03:09:00;14.45;;;6.45;;
72115;SDS011;59991;52.140;5.428;2024-03-23T03:09:31;21.53;;;6.33;;
72115;SDS011;59991;52.140;5.428;2024-03-23T03:10:03;19.13;;;7.70;;
72115;SDS011;59991;52.140;5.428;2024-03-23T03:10:35;18.48;;;6.88;;
72115;SDS011;59991;52.140;5.428;2024-03-23T03:11:06;17.83;;;7.18;;
72115;SDS011;59991;52.140;5.428;2024-03-23T03:11:37;18.47;;;7.17;;
72115;SDS011;59991;52.140;5.428;2024-03-23T03:12:07;21.65;;;6.82;;
72115;SDS011;59991;52.140;5.428;2024-03-23T03:12:38;22.37;;;6.97;;
72115;SDS011;59991;52.140;5.428;2024-03-23T03:13:08;21.13;;;6.47;;
72115;SDS011;59991;52.140;5.428;2024-03-23T03:13:39;14.70;;;6.27;;
72115;SDS011;59991;52.140;5.428;2024-03-23T03:14:09;19.25;;;7.03;;
72115;SDS011;59991;52.140;5.428;2024-03-23T03:14:40;17.13;;;7.43;;
72115;SDS011;59991;52.140;5.428;2024-03-23T03:15:10;19.23;;;7.30;;
72115;SDS011;59991;52.140;5.428;2024-03-23T03:15:42;23.95;;;8.50;;
72115;SDS011;59991;52.140;5.428;2024-03-23T03:16:13;18.65;;;6.85;;
72115;SDS011;59991;52.140;5.428;2024-03-23T03:16:44;16.53;;;7.47;;
72115;SDS011;59991;52.140;5.428;2024-03-23T03:17:15;22.35;;;7.03;;
72115;SDS011;59991;52.140;5.428;2024-03-23T03:17:45;20.77;;;6.87;;
72115;SDS011;59991;52.140;5.428;2024-03-23T03:18:34;17.33;;;7.07;;
72115;SDS011;59991;52.140;5.428;2024-03-23T03:19:05;22.08;;;7.20;;
72115;SDS011;59991;52.140;5.428;2024-03-23T03:19:36;15.32;;;6.75;;
72115;SDS011;59991;52.140;5.428;2024-03-23T03:20:25;21.02;;;7.22;;
72115;SDS011;59991;52.140;5.428;2024-03-23T03:20:56;16.87;;;6.77;;
72115;SDS011;59991;52.140;5.428;2024-03-23T03:21:27;16.20;;;6.88;;
72115;SDS011;59991;52.140;5.428;2024-03-23T03:21:58;12.35;;;6.55;;
72115;SDS011;59991;52.140;5.428;2024-03-23T03:22:28;17.00;;;7.13;;
72115;SDS011;59991;52.140;5.428;2024-03-23T03:22:59;18.23;;;6.50;;
72115;SDS011;59991;52.140;5.428;2024-03-23T03:23:29;17.87;;;6.40;;
72115;SDS011;59991;52.140;5.428;2024-03-23T03:24:00;22.87;;;6.83;;
72115;SDS011;59991;52.140;5.428;2024-03-23T03:24:31;18.10;;;7.55;;
72115;SDS011;59991;52.140;5.428;2024-03-23T03:25:02;21.75;;;7.50;;
72115;SDS011;59991;52.140;5.428;2024-03-23T03:25:33;22.83;;;6.53;;
72115;SDS011;59991;52.140;5.428;2024-03-23T03:26:06;14.57;;;7.25;;
72115;SDS011;59991;52.140;5.428;2024-03-23T03:26:37;14.98;;;7.80;;
72115;SDS011;59991;52.140;5.428;2024-03-23T03:27:07;22.77;;;6.73;;
72115;SDS011;59991;52.140;5.428;2024-03-23T03:27:38;20.45;;;6.82;;
72115;SDS011;59991;52.140;5.428;2024-03-23T03:28:08;18.05;;;7.45;;
72115;SDS011;59991;52.140;5.428;2024-03-23T03:28:39;18.60;;;8.10;;
72115;SDS011;59991;52.140;5.428;2024-03-23T03:29:10;18.08;;;8.02;;
72115;SDS011;59991;52.140;5.428;2024-03-23T03:29:41;19.10;;;7.70;;
72115;SDS011;59991;52.140;5.428;2024-03-23T03:30:12;16.17;;;6.37;;
72115;SDS011;59991;52.140;5.428;2024-03-23T03:31:01;12.95;;;7.05;;
72115;SDS011;59991;52.140;5.428;2024-03-23T03:31:32;13.90;;;6.85;;
72115;SDS011;59991;52.140;5.428;2024-03-23T03:32:02;15.43;;;6.47;;
72115;SDS011;59991;52.140;5.428;2024-03-23T03:32:33;15.55;;;6.32;;
72115;SDS011;59991;52.140;5.428;2024-03-23T03:33:05;21.42;;;7.13;;
72115;SDS011;59991;52.140;5.428;2024-03-23T03:33:35;12.33;;;6.23;;
72115;SDS011;59991;52.140;5.428;2024-03-23T03:34:06;14.25;;;6.30;;
72115;SDS011;59991;52.140;5.428;2024-03-23T03:34:36;13.20;;;6.83;;
72115;SDS011;59991;52.140;5.428;2024-03-23T03:35:07;23.45;;;7.03;;
72115;SDS011;59991;52.140;5.428;2024-03-23T03:35:37;17.93;;;6.10;;
72115;SDS011;59991;52.140;5.428;2024-03-23T03:36:26;17.77;;;8.05;;
72115;SDS011;59991;52.140;5.428;2024-03-23T03:37:46;17.67;;;6.57;;
72115;SDS011;59991;52.140;5.428;2024-03-23T03:38:16;18.85;;;6.43;;
72115;SDS011;59991;52.140;5.428;2024-03-23T03:38:47;14.13;;;6.70;;
72115;SDS011;59991;52.140;5.428;2024-03-23T03:40:08;16.00;;;6.32;;
72115;SDS011;59991;52.140;5.428;2024-03-23T03:40:39;16.70;;;7.22;;
72115;SDS011;59991;52.140;5.428;2024-03-23T03:41:11;18.08;;;7.50;;
72115;SDS011;59991;52.140;5.428;2024-03-23T03:41:42;15.83;;;6.30;;
72115;SDS011;59991;52.140;5.428;2024-03-23T03:42:12;14.43;;;8.10;;
72115;SDS011;59991;52.140;5.428;2024-03-23T03:43:01;14.68;;;6.60;;
72115;SDS011;59991;52.140;5.428;2024-03-23T03:43:32;15.02;;;6.93;;
72115;SDS011;59991;52.140;5.428;2024-03-23T03:44:02;14.60;;;7.57;;
72115;SDS011;59991;52.140;5.428;2024-03-23T03:44:33;13.03;;;6.37;;
72115;SDS011;59991;52.140;5.428;2024-03-23T03:45:04;13.80;;;6.60;;
72115;SDS011;59991;52.140;5.428;2024-03-23T03:45:56;17.25;;;7.32;;
72115;SDS011;59991;52.140;5.428;2024-03-23T03:46:28;16.33;;;8.02;;
72115;SDS011;59991;52.140;5.428;2024-03-23T03:46:58;17.10;;;7.65;;
72115;SDS011;59991;52.140;5.428;2024-03-23T03:47:29;15.47;;;7.17;;
72115;SDS011;59991;52.140;5.428;2024-03-23T03:48:00;18.70;;;8.68;;
72115;SDS011;59991;52.140;5.428;2024-03-23T03:48:30;17.63;;;7.93;;
72115;SDS011;59991;52.140;5.428;2024-03-23T03:49:01;17.10;;;7.43;;
72115;SDS011;59991;52.140;5.428;2024-03-23T03:49:31;18.63;;;7.10;;
72115;SDS011;59991;52.140;5.428;2024-03-23T03:50:52;16.77;;;7.78;;
72115;SDS011;59991;52.140;5.428;2024-03-23T03:51:23;13.70;;;6.80;;
72115;SDS011;59991;52.140;5.428;2024-03-23T03:51:53;16.70;;;8.13;;
72115;SDS011;59991;52.140;5.428;2024-03-23T03:52:24;17.75;;;7.80;;
72115;SDS011;59991;52.140;5.428;2024-03-23T03:52:54;17.63;;;7.67;;
72115;SDS011;59991;52.140;5.428;2024-03-23T03:53:25;17.00;;;8.90;;
72115;SDS011;59991;52.140;5.428;2024-03-23T03:53:56;21.42;;;7.95;;
72115;SDS011;59991;52.140;5.428;2024-03-23T03:54:27;17.80;;;7.68;;
72115;SDS011;59991;52.140;5.428;2024-03-23T03:55:01;14.57;;;8.07;;
72115;SDS011;59991;52.140;5.428;2024-03-23T03:55:33;17.43;;;6.50;;
72115;SDS011;59991;52.140;5.428;2024-03-23T03:56:03;17.02;;;8.25;;
72115;SDS011;59991;52.140;5.428;2024-03-23T03:56:52;14.38;;;8.13;;
72115;SDS011;59991;52.140;5.428;2024-03-23T03:57:23;19.13;;;7.73;;
72115;SDS011;59991;52.140;5.428;2024-03-23T03:57:54;18.13;;;6.70;;
72115;SDS011;59991;52.140;5.428;2024-03-23T03:58:24;15.40;;;7.10;;
72115;SDS011;59991;52.140;5.428;2024-03-23T03:58:55;12.40;;;6.90;;
72115;SDS011;59991;52.140;5.428;2024-03-23T03:59:25;17.93;;;7.30;;
72115;SDS011;59991;52.140;5.428;2024-03-23T03:59:56;15.35;;;6.53;;
72115;SDS011;59991;52.140;5.428;2024-03-23T04:00:27;19.52;;;7.18;;
72115;SDS011;59991;52.140;5.428;2024-03-23T04:00:57;17.43;;;7.13;;
72115;SDS011;59991;52.140;5.428;2024-03-23T04:01:28;22.23;;;7.55;;
72115;SDS011;59991;52.140;5.428;2024-03-23T04:01:58;17.57;;;7.60;;
72115;SDS011;59991;52.140;5.428;2024-03-23T04:02:29;17.17;;;7.50;;
72115;SDS011;59991;52.140;5.428;2024-03-23T04:02:59;14.20;;;7.73;;
72115;SDS011;59991;52.140;5.428;2024-03-23T04:03:30;12.97;;;6.80;;
72115;SDS011;59991;52.140;5.428;2024-03-23T04:04:01;16.23;;;6.85;;
72115;SDS011;59991;52.140;5.428;2024-03-23T04:04:50;13.60;;;6.25;;
72115;SDS011;59991;52.140;5.428;2024-03-23T04:05:20;18.67;;;6.73;;
72115;SDS011;59991;52.140;5.428;2024-03-23T04:05:53;19.33;;;6.87;;
72115;SDS011;59991;52.140;5.428;2024-03-23T04:06:24;14.93;;;6.65;;
72115;SDS011;59991;52.140;5.428;2024-03-23T04:07:01;14.77;;;7.80;;
72115;SDS011;59991;52.140;5.428;2024-03-23T04:07:32;16.77;;;8.55;;
72115;SDS011;59991;52.140;5.428;2024-03-23T04:08:03;17.03;;;6.63;;
72115;SDS011;59991;52.140;5.428;2024-03-23T04:08:34;17.35;;;6.78;;
72115;SDS011;59991;52.140;5.428;2024-03-23T04:09:05;15.83;;;6.90;;
72115;SDS011;59991;52.140;5.428;2024-03-23T04:09:36;16.77;;;7.75;;
72115;SDS011;59991;52.140;5.428;2024-03-23T04:10:07;18.30;;;7.30;;
72115;SDS011;59991;52.140;5.428;2024-03-23T04:10:38;13.27;;;6.47;;
72115;SDS011;59991;52.140;5.428;2024-03-23T04:11:57;15.35;;;6.38;;
72115;SDS011;59991;52.140;5.428;2024-03-23T04:12:28;11.47;;;6.63;;